sensor_id;sensor_type;location;lat;lon;timestamp;P1;durP1;ratioP1;P2;durP2;ratioP2
55811;SDS011;41742;52.048;6.092;2022-09-06T00:01:40;4.90;;;1.17;;
55811;SDS011;41742;52.048;6.092;2022-09-06T00:04:07;2.13;;;1.00;;
55811;SDS011;41742;52.048;6.092;2022-09-06T00:06:32;3.10;;;1.25;;
55811;SDS011;41742;52.048;6.092;2022-09-06T00:08:58;2.05;;;1.10;;
55811;SDS011;41742;52.048;6.092;2022-09-06T00:11:24;1.77;;;0.90;;
55811;SDS011;41742;52.048;6.092;2022-09-06T00:13:50;2.65;;;1.20;;
55811;SDS011;41742;52.048;6.092;2022-09-06T00:16:17;1.30;;;0.82;;
55811;SDS011;41742;52.048;6.092;2022-09-06T00:18:44;2.33;;;1.15;;
55811;SDS011;41742;52.048;6.092;2022-09-06T00:21:20;3.92;;;0.70;;
55811;SDS011;41742;52.048;6.092;2022-09-06T00:23:47;2.17;;;1.30;;
55811;SDS011;41742;52.048;6.092;2022-09-06T00:26:14;2.75;;;1.00;;
55811;SDS011;41742;52.048;6.092;2022-09-06T00:28:40;2.38;;;0.80;;
55811;SDS011;41742;52.048;6.092;2022-09-06T00:31:24;2.60;;;1.20;;
55811;SDS011;41742;52.048;6.092;2022-09-06T00:33:51;1.17;;;0.98;;
55811;SDS011;41742;52.048;6.092;2022-09-06T00:36:17;2.83;;;0.88;;
55811;SDS011;41742;52.048;6.092;2022-09-06T00:38:43;3.30;;;1.25;;
55811;SDS011;41742;52.048;6.092;2022-09-06T00:41:11;5.75;;;0.82;;
55811;SDS011;41742;52.048;6.092;2022-09-06T00:43:38;3.00;;;1.08;;
55811;SDS011;41742;52.048;6.092;2022-09-06T00:46:05;1.20;;;0.60;;
55811;SDS011;41742;52.048;6.092;2022-09-06T00:48:32;1.50;;;0.85;;
55811;SDS011;41742;52.048;6.092;2022-09-06T00:50:59;1.95;;;0.90;;
55811;SDS011;41742;52.048;6.092;2022-09-06T00:53:26;1.75;;;0.98;;
55811;SDS011;41742;52.048;6.092;2022-09-06T00:55:52;1.98;;;1.00;;
55811;SDS011;41742;52.048;6.092;2022-09-06T00:58:19;1.80;;;1.10;;
55811;SDS011;41742;52.048;6.092;2022-09-06T01:00:45;4.18;;;1.80;;
55811;SDS011;41742;52.048;6.092;2022-09-06T01:03:10;3.40;;;1.52;;
55811;SDS011;41742;52.048;6.092;2022-09-06T01:05:57;1.67;;;1.42;;
55811;SDS011;41742;52.048;6.092;2022-09-06T01:08:52;1.05;;;0.70;;
55811;SDS011;41742;52.048;6.092;2022-09-06T01:14:15;4.95;;;1.60;;
55811;SDS011;41742;52.048;6.092;2022-09-06T01:16:56;5.10;;;1.23;;
55811;SDS011;41742;52.048;6.092;2022-09-06T01:25:02;2.70;;;1.17;;
55811;SDS011;41742;52.048;6.092;2022-09-06T01:27:52;2.00;;;1.00;;
55811;SDS011;41742;52.048;6.092;2022-09-06T01:30:36;3.58;;;1.55;;
55811;SDS011;41742;52.048;6.092;2022-09-06T01:33:13;5.40;;;1.30;;
55811;SDS011;41742;52.048;6.092;2022-09-06T01:36:06;3.38;;;1.45;;
55811;SDS011;41742;52.048;6.092;2022-09-06T01:38:33;1.40;;;0.95;;
55811;SDS011;41742;52.048;6.092;2022-09-06T01:40:59;2.95;;;1.30;;
55811;SDS011;41742;52.048;6.092;2022-09-06T01:43:29;1.50;;;0.93;;
55811;SDS011;41742;52.048;6.092;2022-09-06T01:51:03;3.20;;;1.20;;
55811;SDS011;41742;52.048;6.092;2022-09-06T01:56:40;0.90;;;0.80;;
55811;SDS011;41742;52.048;6.092;2022-09-06T02:02:07;3.78;;;1.25;;
55811;SDS011;41742;52.048;6.092;2022-09-06T02:05:03;3.00;;;0.98;;
55811;SDS011;41742;52.048;6.092;2022-09-06T02:07:33;1.65;;;0.98;;
55811;SDS011;41742;52.048;6.092;2022-09-06T02:10:11;1.92;;;1.05;;
55811;SDS011;41742;52.048;6.092;2022-09-06T02:12:43;3.63;;;1.17;;
55811;SDS011;41742;52.048;6.092;2022-09-06T02:15:15;1.60;;;0.98;;
55811;SDS011;41742;52.048;6.092;2022-09-06T02:17:48;2.33;;;1.10;;
55811;SDS011;41742;52.048;6.092;2022-09-06T02:20:25;1.58;;;0.90;;
55811;SDS011;41742;52.048;6.092;2022-09-06T02:22:55;1.55;;;0.85;;
55811;SDS011;41742;52.048;6.092;2022-09-06T02:25:25;2.38;;;1.17;;
55811;SDS011;41742;52.048;6.092;2022-09-06T02:27:55;2.33;;;1.10;;
55811;SDS011;41742;52.048;6.092;2022-09-06T02:30:21;1.98;;;1.23;;
55811;SDS011;41742;52.048;6.092;2022-09-06T02:32:49;3.15;;;1.15;;
55811;SDS011;41742;52.048;6.092;2022-09-06T02:35:21;0.98;;;0.88;;
55811;SDS011;41742;52.048;6.092;2022-09-06T02:37:47;1.65;;;0.90;;
55811;SDS011;41742;52.048;6.092;2022-09-06T02:40:13;1.48;;;1.10;;
55811;SDS011;41742;52.048;6.092;2022-09-06T02:42:39;3.20;;;0.85;;
55811;SDS011;41742;52.048;6.092;2022-09-06T02:45:06;1.95;;;0.90;;
55811;SDS011;41742;52.048;6.092;2022-09-06T02:47:32;3.40;;;0.82;;
55811;SDS011;41742;52.048;6.092;2022-09-06T02:49:57;2.47;;;1.15;;
55811;SDS011;41742;52.048;6.092;2022-09-06T02:52:23;4.38;;;1.15;;
55811;SDS011;41742;52.048;6.092;2022-09-06T02:54:49;2.60;;;0.80;;
55811;SDS011;41742;52.048;6.092;2022-09-06T02:57:14;1.88;;;0.95;;
55811;SDS011;41742;52.048;6.092;2022-09-06T02:59:40;2.35;;;0.82;;
55811;SDS011;41742;52.048;6.092;2022-09-06T03:02:05;1.58;;;1.10;;
55811;SDS011;41742;52.048;6.092;2022-09-06T03:04:31;1.60;;;0.90;;
55811;SDS011;41742;52.048;6.092;2022-09-06T03:06:57;7.00;;;1.30;;
55811;SDS011;41742;52.048;6.092;2022-09-06T03:09:22;5.38;;;1.10;;
55811;SDS011;41742;52.048;6.092;2022-09-06T03:11:49;1.25;;;1.15;;
55811;SDS011;41742;52.048;6.092;2022-09-06T03:14:14;2.97;;;1.27;;
55811;SDS011;41742;52.048;6.092;2022-09-06T03:16:41;1.33;;;1.23;;
55811;SDS011;41742;52.048;6.092;2022-09-06T03:19:07;1.92;;;1.55;;
55811;SDS011;41742;52.048;6.092;2022-09-06T03:21:32;2.33;;;1.38;;
55811;SDS011;41742;52.048;6.092;2022-09-06T03:23:58;2.20;;;1.52;;
55811;SDS011;41742;52.048;6.092;2022-09-06T03:26:24;6.95;;;1.58;;
55811;SDS011;41742;52.048;6.092;2022-09-06T03:28:49;1.13;;;1.02;;
55811;SDS011;41742;52.048;6.092;2022-09-06T03:31:15;6.93;;;1.55;;
55811;SDS011;41742;52.048;6.092;2022-09-06T03:33:41;4.18;;;2.05;;
55811;SDS011;41742;52.048;6.092;2022-09-06T03:36:06;2.30;;;1.63;;
55811;SDS011;41742;52.048;6.092;2022-09-06T03:38:32;2.40;;;1.75;;
55811;SDS011;41742;52.048;6.092;2022-09-06T03:40:58;2.78;;;1.45;;
55811;SDS011;41742;52.048;6.092;2022-09-06T03:43:24;2.17;;;1.33;;
55811;SDS011;41742;52.048;6.092;2022-09-06T03:45:52;2.90;;;1.40;;
55811;SDS011;41742;52.048;6.092;2022-09-06T03:48:21;3.22;;;1.80;;
55811;SDS011;41742;52.048;6.092;2022-09-06T03:50:48;2.13;;;1.58;;
55811;SDS011;41742;52.048;6.092;2022-09-06T03:53:16;6.78;;;1.60;;
55811;SDS011;41742;52.048;6.092;2022-09-06T03:55:48;1.70;;;1.23;;
55811;SDS011;41742;52.048;6.092;2022-09-06T03:58:15;2.70;;;1.63;;
55811;SDS011;41742;52.048;6.092;2022-09-06T04:00:42;2.92;;;1.73;;
55811;SDS011;41742;52.048;6.092;2022-09-06T04:03:08;2.47;;;1.30;;
55811;SDS011;41742;52.048;6.092;2022-09-06T04:05:34;1.95;;;1.65;;
55811;SDS011;41742;52.048;6.092;2022-09-06T04:08:00;2.47;;;1.42;;
55811;SDS011;41742;52.048;6.092;2022-09-06T04:10:26;1.45;;;1.15;;
55811;SDS011;41742;52.048;6.092;2022-09-06T04:12:52;1.42;;;1.27;;
55811;SDS011;41742;52.048;6.092;2022-09-06T04:15:18;1.50;;;1.40;;
55811;SDS011;41742;52.048;6.092;2022-09-06T04:17:44;2.00;;;1.33;;
55811;SDS011;41742;52.048;6.092;2022-09-06T04:20:11;3.10;;;1.48;;
55811;SDS011;41742;52.048;6.092;2022-09-06T04:22:38;3.13;;;1.60;;
55811;SDS011;41742;52.048;6.092;2022-09-06T04:25:03;2.40;;;1.30;;
55811;SDS011;41742;52.048;6.092;2022-09-06T04:27:30;2.17;;;1.50;;
55811;SDS011;41742;52.048;6.092;2022-09-06T04:29:55;2.58;;;1.65;;
55811;SDS011;41742;52.048;6.092;2022-09-06T04:32:21;3.47;;;1.40;;
55811;SDS011;41742;52.048;6.092;2022-09-06T04:34:47;4.43;;;1.75;;
55811;SDS011;41742;52.048;6.092;2022-09-06T04:37:13;2.35;;;1.27;;
55811;SDS011;41742;52.048;6.092;2022-09-06T04:39:44;4.35;;;1.40;;
55811;SDS011;41742;52.048;6.092;2022-09-06T04:42:10;2.85;;;1.42;;
55811;SDS011;41742;52.048;6.092;2022-09-06T04:44:36;2.17;;;1.23;;
55811;SDS011;41742;52.048;6.092;2022-09-06T04:47:05;1.58;;;1.45;;
55811;SDS011;41742;52.048;6.092;2022-09-06T04:49:36;3.47;;;1.45;;
55811;SDS011;41742;52.048;6.092;2022-09-06T04:52:02;1.88;;;1.48;;
55811;SDS011;41742;52.048;6.092;2022-09-06T04:54:28;4.47;;;1.58;;
55811;SDS011;41742;52.048;6.092;2022-09-06T04:56:53;1.70;;;1.15;;
55811;SDS011;41742;52.048;6.092;2022-09-06T04:59:19;5.82;;;1.60;;
55811;SDS011;41742;52.048;6.092;2022-09-06T05:01:44;3.67;;;1.48;;
55811;SDS011;41742;52.048;6.092;2022-09-06T05:04:10;1.15;;;1.05;;
55811;SDS011;41742;52.048;6.092;2022-09-06T05:06:36;2.03;;;1.23;;
55811;SDS011;41742;52.048;6.092;2022-09-06T05:09:03;4.20;;;1.58;;
55811;SDS011;41742;52.048;6.092;2022-09-06T05:11:28;1.50;;;1.30;;
55811;SDS011;41742;52.048;6.092;2022-09-06T05:13:54;2.45;;;1.48;;
55811;SDS011;41742;52.048;6.092;2022-09-06T05:16:20;2.42;;;1.40;;
55811;SDS011;41742;52.048;6.092;2022-09-06T05:18:45;1.50;;;1.40;;
55811;SDS011;41742;52.048;6.092;2022-09-06T05:21:11;1.67;;;1.42;;
55811;SDS011;41742;52.048;6.092;2022-09-06T05:23:36;1.92;;;1.23;;
55811;SDS011;41742;52.048;6.092;2022-09-06T05:26:02;2.95;;;1.65;;
55811;SDS011;41742;52.048;6.092;2022-09-06T05:28:29;5.97;;;1.70;;
55811;SDS011;41742;52.048;6.092;2022-09-06T05:31:11;2.28;;;1.55;;
55811;SDS011;41742;52.048;6.092;2022-09-06T05:33:47;2.17;;;1.17;;
55811;SDS011;41742;52.048;6.092;2022-09-06T05:36:13;3.45;;;1.60;;
55811;SDS011;41742;52.048;6.092;2022-09-06T05:38:38;4.15;;;1.50;;
55811;SDS011;41742;52.048;6.092;2022-09-06T05:41:04;2.20;;;1.23;;
55811;SDS011;41742;52.048;6.092;2022-09-06T05:43:29;1.98;;;1.40;;
55811;SDS011;41742;52.048;6.092;2022-09-06T05:45:55;2.47;;;1.58;;
55811;SDS011;41742;52.048;6.092;2022-09-06T05:48:20;1.33;;;1.17;;
55811;SDS011;41742;52.048;6.092;2022-09-06T05:50:46;2.58;;;1.58;;
55811;SDS011;41742;52.048;6.092;2022-09-06T05:53:11;2.63;;;1.55;;
55811;SDS011;41742;52.048;6.092;2022-09-06T05:55:37;2.20;;;1.70;;
55811;SDS011;41742;52.048;6.092;2022-09-06T05:58:03;2.65;;;1.65;;
55811;SDS011;41742;52.048;6.092;2022-09-06T06:00:28;3.15;;;1.73;;
55811;SDS011;41742;52.048;6.092;2022-09-06T06:02:54;3.33;;;1.70;;
55811;SDS011;41742;52.048;6.092;2022-09-06T06:05:19;2.10;;;1.58;;
55811;SDS011;41742;52.048;6.092;2022-09-06T06:07:45;2.78;;;1.60;;
55811;SDS011;41742;52.048;6.092;2022-09-06T06:10:11;2.40;;;1.65;;
55811;SDS011;41742;52.048;6.092;2022-09-06T06:12:36;2.72;;;1.67;;
55811;SDS011;41742;52.048;6.092;2022-09-06T06:15:02;3.38;;;1.80;;
55811;SDS011;41742;52.048;6.092;2022-09-06T06:17:29;4.32;;;1.52;;
55811;SDS011;41742;52.048;6.092;2022-09-06T06:19:55;2.35;;;1.50;;
55811;SDS011;41742;52.048;6.092;2022-09-06T06:22:20;2.83;;;1.90;;
55811;SDS011;41742;52.048;6.092;2022-09-06T06:24:46;2.65;;;1.63;;
55811;SDS011;41742;52.048;6.092;2022-09-06T06:27:11;3.53;;;1.67;;
55811;SDS011;41742;52.048;6.092;2022-09-06T06:29:37;2.72;;;1.65;;
55811;SDS011;41742;52.048;6.092;2022-09-06T06:32:02;2.42;;;1.45;;
55811;SDS011;41742;52.048;6.092;2022-09-06T06:34:28;5.15;;;1.50;;
55811;SDS011;41742;52.048;6.092;2022-09-06T06:36:54;3.33;;;1.80;;
55811;SDS011;41742;52.048;6.092;2022-09-06T06:39:20;2.97;;;1.77;;
55811;SDS011;41742;52.048;6.092;2022-09-06T06:41:46;8.88;;;2.08;;
55811;SDS011;41742;52.048;6.092;2022-09-06T06:46:55;2.80;;;2.28;;
55811;SDS011;41742;52.048;6.092;2022-09-06T06:49:22;2.80;;;2.10;;
55811;SDS011;41742;52.048;6.092;2022-09-06T06:51:48;5.95;;;2.97;;
55811;SDS011;41742;52.048;6.092;2022-09-06T06:54:13;3.85;;;2.50;;
55811;SDS011;41742;52.048;6.092;2022-09-06T06:56:39;6.32;;;2.40;;
55811;SDS011;41742;52.048;6.092;2022-09-06T06:59:05;4.15;;;2.88;;
55811;SDS011;41742;52.048;6.092;2022-09-06T07:01:32;3.78;;;2.50;;
55811;SDS011;41742;52.048;6.092;2022-09-06T07:03:58;6.45;;;2.50;;
55811;SDS011;41742;52.048;6.092;2022-09-06T07:06:24;5.70;;;2.92;;
55811;SDS011;41742;52.048;6.092;2022-09-06T07:08:52;4.25;;;2.85;;
55811;SDS011;41742;52.048;6.092;2022-09-06T07:11:18;9.50;;;3.33;;
55811;SDS011;41742;52.048;6.092;2022-09-06T07:13:43;6.03;;;2.50;;
55811;SDS011;41742;52.048;6.092;2022-09-06T07:16:13;9.80;;;2.80;;
55811;SDS011;41742;52.048;6.092;2022-09-06T07:18:41;6.35;;;3.50;;
55811;SDS011;41742;52.048;6.092;2022-09-06T07:21:14;5.00;;;3.35;;
55811;SDS011;41742;52.048;6.092;2022-09-06T07:26:06;5.75;;;3.70;;
55811;SDS011;41742;52.048;6.092;2022-09-06T07:28:37;7.68;;;3.45;;
55811;SDS011;41742;52.048;6.092;2022-09-06T07:31:02;4.43;;;2.88;;
55811;SDS011;41742;52.048;6.092;2022-09-06T07:33:28;4.63;;;3.03;;
55811;SDS011;41742;52.048;6.092;2022-09-06T07:35:58;3.60;;;2.80;;
55811;SDS011;41742;52.048;6.092;2022-09-06T07:38:25;6.07;;;3.20;;
55811;SDS011;41742;52.048;6.092;2022-09-06T07:41:03;10.27;;;2.67;;
55811;SDS011;41742;52.048;6.092;2022-09-06T07:43:30;6.05;;;3.42;;
55811;SDS011;41742;52.048;6.092;2022-09-06T07:48:26;4.90;;;3.00;;
55811;SDS011;41742;52.048;6.092;2022-09-06T07:50:53;6.13;;;3.13;;
55811;SDS011;41742;52.048;6.092;2022-09-06T07:53:19;4.22;;;2.78;;
55811;SDS011;41742;52.048;6.092;2022-09-06T07:55:45;4.80;;;2.70;;
55811;SDS011;41742;52.048;6.092;2022-09-06T07:58:10;6.57;;;3.13;;
55811;SDS011;41742;52.048;6.092;2022-09-06T08:00:36;2.50;;;2.20;;
55811;SDS011;41742;52.048;6.092;2022-09-06T08:03:04;8.02;;;2.35;;
55811;SDS011;41742;52.048;6.092;2022-09-06T08:05:30;5.03;;;3.00;;
55811;SDS011;41742;52.048;6.092;2022-09-06T08:07:56;3.78;;;3.22;;
55811;SDS011;41742;52.048;6.092;2022-09-06T08:10:21;8.63;;;2.78;;
55811;SDS011;41742;52.048;6.092;2022-09-06T08:12:47;4.32;;;3.00;;
55811;SDS011;41742;52.048;6.092;2022-09-06T08:15:16;7.07;;;3.60;;
55811;SDS011;41742;52.048;6.092;2022-09-06T08:17:41;4.00;;;2.78;;
55811;SDS011;41742;52.048;6.092;2022-09-06T08:20:07;3.90;;;2.70;;
55811;SDS011;41742;52.048;6.092;2022-09-06T08:22:33;9.70;;;2.88;;
55811;SDS011;41742;52.048;6.092;2022-09-06T08:24:59;8.48;;;3.15;;
55811;SDS011;41742;52.048;6.092;2022-09-06T08:27:24;4.75;;;3.22;;
55811;SDS011;41742;52.048;6.092;2022-09-06T08:29:50;3.95;;;2.67;;
55811;SDS011;41742;52.048;6.092;2022-09-06T08:32:15;10.23;;;2.72;;
55811;SDS011;41742;52.048;6.092;2022-09-06T08:34:43;6.70;;;3.20;;
55811;SDS011;41742;52.048;6.092;2022-09-06T08:37:09;6.90;;;3.25;;
55811;SDS011;41742;52.048;6.092;2022-09-06T08:39:34;4.57;;;3.17;;
55811;SDS011;41742;52.048;6.092;2022-09-06T08:42:00;16.23;;;3.00;;
55811;SDS011;41742;52.048;6.092;2022-09-06T08:47:06;2.92;;;2.47;;
55811;SDS011;41742;52.048;6.092;2022-09-06T08:49:42;7.28;;;2.88;;
55811;SDS011;41742;52.048;6.092;2022-09-06T08:52:55;3.30;;;2.50;;
55811;SDS011;41742;52.048;6.092;2022-09-06T08:55:14;5.30;;;2.58;;
55811;SDS011;41742;52.048;6.092;2022-09-06T08:58:08;5.47;;;2.30;;
55811;SDS011;41742;52.048;6.092;2022-09-06T09:00:50;3.45;;;2.35;;
55811;SDS011;41742;52.048;6.092;2022-09-06T09:05:58;5.43;;;2.13;;
55811;SDS011;41742;52.048;6.092;2022-09-06T09:11:01;4.10;;;2.45;;
55811;SDS011;41742;52.048;6.092;2022-09-06T09:13:39;4.05;;;2.05;;
55811;SDS011;41742;52.048;6.092;2022-09-06T09:16:25;2.42;;;1.33;;
55811;SDS011;41742;52.048;6.092;2022-09-06T09:18:52;4.30;;;2.08;;
55811;SDS011;41742;52.048;6.092;2022-09-06T09:21:22;4.40;;;2.42;;
55811;SDS011;41742;52.048;6.092;2022-09-06T09:23:53;2.95;;;1.73;;
55811;SDS011;41742;52.048;6.092;2022-09-06T09:26:20;2.08;;;1.70;;
55811;SDS011;41742;52.048;6.092;2022-09-06T09:31:39;9.27;;;1.98;;
55811;SDS011;41742;52.048;6.092;2022-09-06T09:34:31;3.15;;;2.25;;
55811;SDS011;41742;52.048;6.092;2022-09-06T09:39:37;2.15;;;1.52;;
55811;SDS011;41742;52.048;6.092;2022-09-06T09:42:03;4.78;;;1.65;;
55811;SDS011;41742;52.048;6.092;2022-09-06T09:44:29;2.83;;;1.17;;
55811;SDS011;41742;52.048;6.092;2022-09-06T09:46:55;2.95;;;1.45;;
55811;SDS011;41742;52.048;6.092;2022-09-06T09:52:30;2.35;;;1.60;;
55811;SDS011;41742;52.048;6.092;2022-09-06T09:54:39;3.05;;;1.23;;
55811;SDS011;41742;52.048;6.092;2022-09-06T09:57:09;4.40;;;1.73;;
55811;SDS011;41742;52.048;6.092;2022-09-06T10:02:30;1.88;;;1.00;;
55811;SDS011;41742;52.048;6.092;2022-09-06T10:07:41;4.50;;;1.70;;
55811;SDS011;41742;52.048;6.092;2022-09-06T10:10:25;1.90;;;1.20;;
55811;SDS011;41742;52.048;6.092;2022-09-06T10:15:51;2.50;;;1.58;;
55811;SDS011;41742;52.048;6.092;2022-09-06T10:18:30;9.27;;;1.30;;
55811;SDS011;41742;52.048;6.092;2022-09-06T10:20:58;3.50;;;1.30;;
55811;SDS011;41742;52.048;6.092;2022-09-06T10:28:51;3.72;;;1.52;;
55811;SDS011;41742;52.048;6.092;2022-09-06T10:35:15;5.57;;;1.20;;
55811;SDS011;41742;52.048;6.092;2022-09-06T10:37:44;3.45;;;1.67;;
55811;SDS011;41742;52.048;6.092;2022-09-06T10:40:28;0.73;;;0.73;;
55811;SDS011;41742;52.048;6.092;2022-09-06T10:43:01;4.15;;;1.30;;
55811;SDS011;41742;52.048;6.092;2022-09-06T10:45:35;3.67;;;1.27;;
55811;SDS011;41742;52.048;6.092;2022-09-06T10:48:09;2.53;;;1.60;;
55811;SDS011;41742;52.048;6.092;2022-09-06T10:55:47;9.48;;;1.75;;
55811;SDS011;41742;52.048;6.092;2022-09-06T10:58:21;3.25;;;1.20;;
55811;SDS011;41742;52.048;6.092;2022-09-06T11:00:52;1.90;;;1.17;;
55811;SDS011;41742;52.048;6.092;2022-09-06T11:05:56;5.72;;;1.40;;
55811;SDS011;41742;52.048;6.092;2022-09-06T11:11:34;1.20;;;1.00;;
55811;SDS011;41742;52.048;6.092;2022-09-06T11:14:08;2.63;;;1.17;;
55811;SDS011;41742;52.048;6.092;2022-09-06T11:16:42;3.70;;;1.45;;
55811;SDS011;41742;52.048;6.092;2022-09-06T11:19:20;1.02;;;0.93;;
55811;SDS011;41742;52.048;6.092;2022-09-06T11:29:47;5.00;;;1.52;;
55811;SDS011;41742;52.048;6.092;2022-09-06T11:35:05;4.25;;;1.13;;
55811;SDS011;41742;52.048;6.092;2022-09-06T11:37:36;4.15;;;1.23;;
55811;SDS011;41742;52.048;6.092;2022-09-06T12:00:41;0.70;;;0.70;;
55811;SDS011;41742;52.048;6.092;2022-09-06T12:03:08;2.75;;;0.80;;
55811;SDS011;41742;52.048;6.092;2022-09-06T12:08:46;7.80;;;1.05;;
55811;SDS011;41742;52.048;6.092;2022-09-06T12:14:01;2.38;;;1.10;;
55811;SDS011;41742;52.048;6.092;2022-09-06T12:27:29;2.20;;;1.00;;
55811;SDS011;41742;52.048;6.092;2022-09-06T12:30:01;1.80;;;0.85;;
55811;SDS011;41742;52.048;6.092;2022-09-06T12:32:34;2.97;;;1.10;;
55811;SDS011;41742;52.048;6.092;2022-09-06T12:35:05;1.48;;;0.73;;
55811;SDS011;41742;52.048;6.092;2022-09-06T12:37:48;2.13;;;1.05;;
55811;SDS011;41742;52.048;6.092;2022-09-06T12:40:18;1.17;;;0.50;;
55811;SDS011;41742;52.048;6.092;2022-09-06T12:42:46;4.18;;;0.90;;
55811;SDS011;41742;52.048;6.092;2022-09-06T12:45:13;1.88;;;0.70;;
55811;SDS011;41742;52.048;6.092;2022-09-06T12:47:39;1.45;;;0.77;;
55811;SDS011;41742;52.048;6.092;2022-09-06T12:52:53;3.53;;;1.05;;
55811;SDS011;41742;52.048;6.092;2022-09-06T12:57:55;3.25;;;0.70;;
55811;SDS011;41742;52.048;6.092;2022-09-06T13:00:23;4.13;;;1.08;;
55811;SDS011;41742;52.048;6.092;2022-09-06T13:02:56;7.00;;;1.13;;
55811;SDS011;41742;52.048;6.092;2022-09-06T13:05:37;0.98;;;0.60;;
55811;SDS011;41742;52.048;6.092;2022-09-06T13:08:06;2.22;;;1.00;;
55811;SDS011;41742;52.048;6.092;2022-09-06T13:10:49;4.15;;;1.13;;
55811;SDS011;41742;52.048;6.092;2022-09-06T13:13:21;1.33;;;0.95;;
55811;SDS011;41742;52.048;6.092;2022-09-06T13:15:49;1.42;;;0.70;;
55811;SDS011;41742;52.048;6.092;2022-09-06T13:18:22;1.00;;;0.90;;
55811;SDS011;41742;52.048;6.092;2022-09-06T13:20:56;4.00;;;1.10;;
55811;SDS011;41742;52.048;6.092;2022-09-06T13:23:27;1.42;;;0.60;;
55811;SDS011;41742;52.048;6.092;2022-09-06T13:25:53;2.15;;;0.80;;
55811;SDS011;41742;52.048;6.092;2022-09-06T13:28:23;0.95;;;0.63;;
55811;SDS011;41742;52.048;6.092;2022-09-06T13:31:02;7.40;;;1.42;;
55811;SDS011;41742;52.048;6.092;2022-09-06T13:33:32;2.55;;;0.93;;
55811;SDS011;41742;52.048;6.092;2022-09-06T13:41:31;5.32;;;0.75;;
55811;SDS011;41742;52.048;6.092;2022-09-06T13:43:59;0.70;;;0.70;;
55811;SDS011;41742;52.048;6.092;2022-09-06T13:46:33;3.40;;;1.10;;
55811;SDS011;41742;52.048;6.092;2022-09-06T13:49:00;0.65;;;0.60;;
55811;SDS011;41742;52.048;6.092;2022-09-06T13:51:26;2.10;;;0.80;;
55811;SDS011;41742;52.048;6.092;2022-09-06T13:54:02;3.28;;;0.70;;
55811;SDS011;41742;52.048;6.092;2022-09-06T13:56:28;1.20;;;0.55;;
55811;SDS011;41742;52.048;6.092;2022-09-06T13:58:53;3.58;;;0.88;;
55811;SDS011;41742;52.048;6.092;2022-09-06T14:01:19;2.05;;;0.80;;
55811;SDS011;41742;52.048;6.092;2022-09-06T14:03:45;1.10;;;0.50;;
55811;SDS011;41742;52.048;6.092;2022-09-06T14:06:10;1.15;;;0.65;;
55811;SDS011;41742;52.048;6.092;2022-09-06T14:08:36;4.82;;;0.75;;
55811;SDS011;41742;52.048;6.092;2022-09-06T14:11:03;1.52;;;0.63;;
55811;SDS011;41742;52.048;6.092;2022-09-06T14:13:30;2.92;;;0.85;;
55811;SDS011;41742;52.048;6.092;2022-09-06T14:15:55;0.47;;;0.40;;
55811;SDS011;41742;52.048;6.092;2022-09-06T14:18:21;2.83;;;0.63;;
55811;SDS011;41742;52.048;6.092;2022-09-06T14:20:53;3.20;;;0.70;;
55811;SDS011;41742;52.048;6.092;2022-09-06T14:23:21;6.25;;;0.55;;
55811;SDS011;41742;52.048;6.092;2022-09-06T14:25:47;3.40;;;0.90;;
55811;SDS011;41742;52.048;6.092;2022-09-06T14:28:13;3.08;;;0.60;;
55811;SDS011;41742;52.048;6.092;2022-09-06T14:30:39;1.20;;;0.60;;
55811;SDS011;41742;52.048;6.092;2022-09-06T14:33:05;0.88;;;0.70;;
55811;SDS011;41742;52.048;6.092;2022-09-06T14:35:31;1.52;;;0.68;;
55811;SDS011;41742;52.048;6.092;2022-09-06T14:37:57;0.60;;;0.52;;
55811;SDS011;41742;52.048;6.092;2022-09-06T14:40:23;0.82;;;0.60;;
55811;SDS011;41742;52.048;6.092;2022-09-06T14:42:49;3.70;;;0.85;;
55811;SDS011;41742;52.048;6.092;2022-09-06T14:45:15;2.28;;;0.90;;
55811;SDS011;41742;52.048;6.092;2022-09-06T14:47:41;2.70;;;0.75;;
55811;SDS011;41742;52.048;6.092;2022-09-06T14:50:06;3.13;;;0.73;;
55811;SDS011;41742;52.048;6.092;2022-09-06T14:52:32;1.55;;;0.80;;
55811;SDS011;41742;52.048;6.092;2022-09-06T14:54:58;1.20;;;0.80;;
55811;SDS011;41742;52.048;6.092;2022-09-06T14:57:24;0.95;;;0.70;;
55811;SDS011;41742;52.048;6.092;2022-09-06T14:59:50;2.13;;;0.60;;
55811;SDS011;41742;52.048;6.092;2022-09-06T15:02:16;0.57;;;0.50;;
55811;SDS011;41742;52.048;6.092;2022-09-06T15:04:41;3.28;;;0.80;;
55811;SDS011;41742;52.048;6.092;2022-09-06T15:07:07;1.02;;;0.73;;
55811;SDS011;41742;52.048;6.092;2022-09-06T15:09:34;1.85;;;0.85;;
55811;SDS011;41742;52.048;6.092;2022-09-06T15:12:00;3.50;;;1.45;;
55811;SDS011;41742;52.048;6.092;2022-09-06T15:14:26;0.40;;;0.40;;
55811;SDS011;41742;52.048;6.092;2022-09-06T15:16:56;3.03;;;0.70;;
55811;SDS011;41742;52.048;6.092;2022-09-06T15:19:24;3.30;;;0.57;;
55811;SDS011;41742;52.048;6.092;2022-09-06T15:21:51;0.70;;;0.57;;
55811;SDS011;41742;52.048;6.092;2022-09-06T15:24:17;0.60;;;0.55;;
55811;SDS011;41742;52.048;6.092;2022-09-06T15:26:43;5.25;;;0.93;;
55811;SDS011;41742;52.048;6.092;2022-09-06T15:29:10;1.63;;;0.80;;
55811;SDS011;41742;52.048;6.092;2022-09-06T15:31:36;1.15;;;0.57;;
55811;SDS011;41742;52.048;6.092;2022-09-06T15:34:04;2.17;;;0.98;;
55811;SDS011;41742;52.048;6.092;2022-09-06T15:36:30;2.95;;;0.65;;
55811;SDS011;41742;52.048;6.092;2022-09-06T15:39:00;0.40;;;0.32;;
55811;SDS011;41742;52.048;6.092;2022-09-06T15:41:28;1.60;;;0.90;;
55811;SDS011;41742;52.048;6.092;2022-09-06T15:43:57;1.05;;;0.65;;
55811;SDS011;41742;52.048;6.092;2022-09-06T15:49:00;7.50;;;1.15;;
55811;SDS011;41742;52.048;6.092;2022-09-06T15:51:27;5.18;;;0.70;;
55811;SDS011;41742;52.048;6.092;2022-09-06T15:53:53;1.88;;;0.70;;
55811;SDS011;41742;52.048;6.092;2022-09-06T15:56:19;1.08;;;0.70;;
55811;SDS011;41742;52.048;6.092;2022-09-06T15:58:46;0.93;;;0.52;;
55811;SDS011;41742;52.048;6.092;2022-09-06T16:01:13;0.60;;;0.60;;
55811;SDS011;41742;52.048;6.092;2022-09-06T16:03:44;3.55;;;0.85;;
55811;SDS011;41742;52.048;6.092;2022-09-06T16:06:14;1.30;;;0.60;;
55811;SDS011;41742;52.048;6.092;2022-09-06T16:08:41;5.35;;;0.63;;
55811;SDS011;41742;52.048;6.092;2022-09-06T16:11:11;1.08;;;0.70;;
55811;SDS011;41742;52.048;6.092;2022-09-06T16:13:38;0.43;;;0.40;;
55811;SDS011;41742;52.048;6.092;2022-09-06T16:16:05;1.77;;;0.57;;
55811;SDS011;41742;52.048;6.092;2022-09-06T16:18:33;5.20;;;1.25;;
55811;SDS011;41742;52.048;6.092;2022-09-06T16:21:07;1.20;;;0.50;;
55811;SDS011;41742;52.048;6.092;2022-09-06T16:23:36;1.15;;;0.60;;
55811;SDS011;41742;52.048;6.092;2022-09-06T16:26:03;0.95;;;0.60;;
55811;SDS011;41742;52.048;6.092;2022-09-06T16:28:29;0.93;;;0.60;;
55811;SDS011;41742;52.048;6.092;2022-09-06T16:31:03;5.30;;;0.68;;
55811;SDS011;41742;52.048;6.092;2022-09-06T16:33:31;0.63;;;0.60;;
55811;SDS011;41742;52.048;6.092;2022-09-06T16:36:01;2.17;;;0.65;;
55811;SDS011;41742;52.048;6.092;2022-09-06T16:38:29;1.48;;;0.50;;
55811;SDS011;41742;52.048;6.092;2022-09-06T16:40:59;4.10;;;0.80;;
55811;SDS011;41742;52.048;6.092;2022-09-06T16:43:32;2.70;;;0.70;;
55811;SDS011;41742;52.048;6.092;2022-09-06T16:45:58;0.95;;;0.65;;
55811;SDS011;41742;52.048;6.092;2022-09-06T16:48:26;0.60;;;0.60;;
55811;SDS011;41742;52.048;6.092;2022-09-06T16:50:52;0.60;;;0.50;;
55811;SDS011;41742;52.048;6.092;2022-09-06T16:53:18;1.85;;;0.70;;
55811;SDS011;41742;52.048;6.092;2022-09-06T16:55:44;1.98;;;0.70;;
55811;SDS011;41742;52.048;6.092;2022-09-06T16:58:10;2.00;;;0.80;;
55811;SDS011;41742;52.048;6.092;2022-09-06T17:00:42;1.85;;;0.47;;
55811;SDS011;41742;52.048;6.092;2022-09-06T17:03:09;1.55;;;0.57;;
55811;SDS011;41742;52.048;6.092;2022-09-06T17:05:38;3.55;;;0.70;;
55811;SDS011;41742;52.048;6.092;2022-09-06T17:08:03;1.40;;;0.70;;
55811;SDS011;41742;52.048;6.092;2022-09-06T17:10:29;4.30;;;0.85;;